Portada
METAR-TAF:

METAR-TAF

Aeropuertos :

Aeropuerto de Chitá-Kadala

Chitá, Rusia

latitud: 52-05N, longitud: 113-29E, altitud: 685 m

Observación

El informe se hizo hace 20 minutos, a las 02:30 UTC
Viento 4 kt del este-noreste
Temperatura 23°C
Humedad 47%
Presión 1004 hPa
Visibilidad 10 km o más

METAR: UIAA 210230Z 07002MPS 9999 NSC 23/11 Q1004 R29/70D NOSIG RMK QFE695/0927

Hora: 11:50 (02:50 UTC)

Pronóstico

El informe se hizo hace 50 minutos, a las 02:00 UTC
Pronóstico válido del 21 a las 03 UTC al 22 a las 03 UTC
Viento 6 kt del oeste
Visibilidad 10 km o más
Nubes dispersas a una altura de 4000 ft, Cumulonimbus.
Temporalmente
del 21 a las 03 UTC al 21 a las 12 UTC
Viento 16 kt con dirección variable
tormenta, lluvia ligera

TAF: UIAA 210200Z 2103/2203 26003MPS 9999 SCT040CB TEMPO 2103/2112 VRB08MPS -TSRA

Observaciones y pronósticos meteorológicos de más de 4000 aeropuertos (mensajes METAR y TAF).

Los puntos amarillos y rojos representan las estaciones disponibles.

Ponga el ratón en el punto deseado para ver el nombre de la estación.

Haga clic para ver las observaciones y los pronósticos meteorológicos.

Para cambiar el mapa : haga clic en los botones verdes con una cruz de color negro para hacer un zoom, en el botón verde con un guión para alejar o en las flechas verdes para mapas adyacentes.


METAR-TAF: